sensor_id;sensor_type;location;lat;lon;timestamp;P1;durP1;ratioP1;P2;durP2;ratioP2
69937;SDS011;57248;47.320;15.998;2023-07-29T00:02:23;5.45;;;1.65;;
69937;SDS011;57248;47.320;15.998;2023-07-29T00:04:55;7.20;;;1.92;;
69937;SDS011;57248;47.320;15.998;2023-07-29T00:07:27;7.30;;;1.85;;
69937;SDS011;57248;47.320;15.998;2023-07-29T00:09:59;7.77;;;1.57;;
69937;SDS011;57248;47.320;15.998;2023-07-29T00:12:31;7.18;;;1.80;;
69937;SDS011;57248;47.320;15.998;2023-07-29T00:15:03;5.50;;;2.00;;
69937;SDS011;57248;47.320;15.998;2023-07-29T00:17:35;5.85;;;1.88;;
69937;SDS011;57248;47.320;15.998;2023-07-29T00:20:07;8.00;;;2.00;;
69937;SDS011;57248;47.320;15.998;2023-07-29T00:22:39;8.10;;;2.10;;
69937;SDS011;57248;47.320;15.998;2023-07-29T00:25:11;6.95;;;1.90;;
69937;SDS011;57248;47.320;15.998;2023-07-29T00:27:43;5.38;;;1.92;;
69937;SDS011;57248;47.320;15.998;2023-07-29T00:30:16;5.95;;;1.83;;
69937;SDS011;57248;47.320;15.998;2023-07-29T00:32:48;9.95;;;2.20;;
69937;SDS011;57248;47.320;15.998;2023-07-29T00:35:20;4.93;;;2.30;;
69937;SDS011;57248;47.320;15.998;2023-07-29T00:37:53;6.13;;;2.00;;
69937;SDS011;57248;47.320;15.998;2023-07-29T00:40:27;5.88;;;2.20;;
69937;SDS011;57248;47.320;15.998;2023-07-29T00:43:00;4.90;;;2.05;;
69937;SDS011;57248;47.320;15.998;2023-07-29T00:45:34;8.70;;;1.83;;
69937;SDS011;57248;47.320;15.998;2023-07-29T00:48:07;7.60;;;1.90;;
69937;SDS011;57248;47.320;15.998;2023-07-29T00:50:46;4.82;;;1.55;;
69937;SDS011;57248;47.320;15.998;2023-07-29T00:53:18;5.07;;;1.70;;
69937;SDS011;57248;47.320;15.998;2023-07-29T00:55:44;7.70;;;1.97;;
69937;SDS011;57248;47.320;15.998;2023-07-29T00:58:15;4.47;;;1.80;;
69937;SDS011;57248;47.320;15.998;2023-07-29T01:00:47;6.65;;;1.63;;
69937;SDS011;57248;47.320;15.998;2023-07-29T01:03:19;6.32;;;2.10;;
69937;SDS011;57248;47.320;15.998;2023-07-29T01:09:44;6.10;;;1.93;;
69937;SDS011;57248;47.320;15.998;2023-07-29T01:11:59;6.72;;;2.67;;
69937;SDS011;57248;47.320;15.998;2023-07-29T01:14:47;5.93;;;2.20;;
69937;SDS011;57248;47.320;15.998;2023-07-29T01:17:33;6.32;;;2.30;;
69937;SDS011;57248;47.320;15.998;2023-07-29T01:20:08;9.40;;;2.40;;
69937;SDS011;57248;47.320;15.998;2023-07-29T01:22:35;5.53;;;2.20;;
69937;SDS011;57248;47.320;15.998;2023-07-29T01:25:08;5.25;;;1.90;;
69937;SDS011;57248;47.320;15.998;2023-07-29T01:27:41;6.63;;;1.80;;
69937;SDS011;57248;47.320;15.998;2023-07-29T01:30:15;7.00;;;2.20;;
69937;SDS011;57248;47.320;15.998;2023-07-29T01:32:53;5.45;;;1.80;;
69937;SDS011;57248;47.320;15.998;2023-07-29T01:35:36;6.70;;;2.10;;
69937;SDS011;57248;47.320;15.998;2023-07-29T01:38:19;8.05;;;2.10;;
69937;SDS011;57248;47.320;15.998;2023-07-29T01:40:53;7.43;;;2.00;;
69937;SDS011;57248;47.320;15.998;2023-07-29T01:43:30;5.38;;;2.20;;
69937;SDS011;57248;47.320;15.998;2023-07-29T01:46:04;7.80;;;2.47;;
69937;SDS011;57248;47.320;15.998;2023-07-29T01:48:43;5.10;;;2.20;;
69937;SDS011;57248;47.320;15.998;2023-07-29T01:51:15;8.05;;;2.63;;
69937;SDS011;57248;47.320;15.998;2023-07-29T01:53:40;5.47;;;1.80;;
69937;SDS011;57248;47.320;15.998;2023-07-29T01:56:12;4.35;;;2.03;;
69937;SDS011;57248;47.320;15.998;2023-07-29T01:58:51;6.20;;;2.03;;
69937;SDS011;57248;47.320;15.998;2023-07-29T02:01:23;8.95;;;2.35;;
69937;SDS011;57248;47.320;15.998;2023-07-29T02:03:55;5.85;;;2.03;;
69937;SDS011;57248;47.320;15.998;2023-07-29T02:06:21;7.20;;;1.67;;
69937;SDS011;57248;47.320;15.998;2023-07-29T02:08:53;4.75;;;1.90;;
69937;SDS011;57248;47.320;15.998;2023-07-29T02:11:26;7.30;;;2.22;;
69937;SDS011;57248;47.320;15.998;2023-07-29T02:13:53;7.97;;;2.10;;
69937;SDS011;57248;47.320;15.998;2023-07-29T02:16:27;6.07;;;1.92;;
69937;SDS011;57248;47.320;15.998;2023-07-29T02:18:59;6.85;;;1.70;;
69937;SDS011;57248;47.320;15.998;2023-07-29T02:21:31;5.35;;;2.40;;
69937;SDS011;57248;47.320;15.998;2023-07-29T02:23:57;6.43;;;2.50;;
69937;SDS011;57248;47.320;15.998;2023-07-29T02:26:29;5.23;;;2.30;;
69937;SDS011;57248;47.320;15.998;2023-07-29T02:29:01;8.02;;;2.10;;
69937;SDS011;57248;47.320;15.998;2023-07-29T02:31:33;4.82;;;1.88;;
69937;SDS011;57248;47.320;15.998;2023-07-29T02:34:06;6.13;;;2.00;;
69937;SDS011;57248;47.320;15.998;2023-07-29T02:36:34;4.97;;;1.97;;
69937;SDS011;57248;47.320;15.998;2023-07-29T02:39:08;7.45;;;2.40;;
69937;SDS011;57248;47.320;15.998;2023-07-29T02:41:40;6.22;;;2.50;;
69937;SDS011;57248;47.320;15.998;2023-07-29T02:44:12;6.87;;;2.40;;
69937;SDS011;57248;47.320;15.998;2023-07-29T02:46:44;5.07;;;2.38;;
69937;SDS011;57248;47.320;15.998;2023-07-29T02:49:16;9.55;;;2.50;;
69937;SDS011;57248;47.320;15.998;2023-07-29T02:51:55;5.00;;;2.30;;
69937;SDS011;57248;47.320;15.998;2023-07-29T02:54:27;9.40;;;2.28;;
69937;SDS011;57248;47.320;15.998;2023-07-29T02:56:59;6.70;;;1.97;;
69937;SDS011;57248;47.320;15.998;2023-07-29T02:59:32;6.35;;;2.35;;
69937;SDS011;57248;47.320;15.998;2023-07-29T03:02:04;7.35;;;2.28;;
69937;SDS011;57248;47.320;15.998;2023-07-29T03:04:36;4.72;;;2.10;;
69937;SDS011;57248;47.320;15.998;2023-07-29T03:07:09;6.97;;;2.25;;
69937;SDS011;57248;47.320;15.998;2023-07-29T03:09:41;5.17;;;2.50;;
69937;SDS011;57248;47.320;15.998;2023-07-29T03:12:13;5.00;;;2.10;;
69937;SDS011;57248;47.320;15.998;2023-07-29T03:14:47;4.55;;;2.05;;
69937;SDS011;57248;47.320;15.998;2023-07-29T03:17:20;8.57;;;2.00;;
69937;SDS011;57248;47.320;15.998;2023-07-29T03:19:52;5.75;;;2.25;;
69937;SDS011;57248;47.320;15.998;2023-07-29T03:22:24;4.17;;;2.00;;
69937;SDS011;57248;47.320;15.998;2023-07-29T03:24:50;7.45;;;2.13;;
69937;SDS011;57248;47.320;15.998;2023-07-29T03:27:21;8.80;;;2.10;;
69937;SDS011;57248;47.320;15.998;2023-07-29T03:29:53;6.38;;;1.88;;
69937;SDS011;57248;47.320;15.998;2023-07-29T03:32:26;7.93;;;2.88;;
69937;SDS011;57248;47.320;15.998;2023-07-29T03:34:58;5.57;;;2.00;;
69937;SDS011;57248;47.320;15.998;2023-07-29T03:37:30;7.80;;;2.00;;
69937;SDS011;57248;47.320;15.998;2023-07-29T03:40:02;7.70;;;2.20;;
69937;SDS011;57248;47.320;15.998;2023-07-29T03:42:31;8.77;;;2.40;;
69937;SDS011;57248;47.320;15.998;2023-07-29T03:45:03;5.78;;;2.40;;
69937;SDS011;57248;47.320;15.998;2023-07-29T03:47:36;6.57;;;2.17;;
69937;SDS011;57248;47.320;15.998;2023-07-29T03:50:15;8.20;;;2.47;;
69937;SDS011;57248;47.320;15.998;2023-07-29T03:52:47;5.93;;;2.00;;
69937;SDS011;57248;47.320;15.998;2023-07-29T03:55:19;10.80;;;2.35;;
69937;SDS011;57248;47.320;15.998;2023-07-29T03:57:52;5.20;;;2.30;;
69937;SDS011;57248;47.320;15.998;2023-07-29T04:00:26;5.63;;;2.15;;
69937;SDS011;57248;47.320;15.998;2023-07-29T04:02:52;6.68;;;2.20;;
69937;SDS011;57248;47.320;15.998;2023-07-29T04:05:24;5.60;;;2.27;;
69937;SDS011;57248;47.320;15.998;2023-07-29T04:07:56;8.30;;;2.30;;
69937;SDS011;57248;47.320;15.998;2023-07-29T04:10:23;10.77;;;2.80;;
69937;SDS011;57248;47.320;15.998;2023-07-29T04:12:55;5.38;;;2.22;;
69937;SDS011;57248;47.320;15.998;2023-07-29T04:15:28;6.73;;;2.50;;
69937;SDS011;57248;47.320;15.998;2023-07-29T04:18:01;6.03;;;2.50;;
69937;SDS011;57248;47.320;15.998;2023-07-29T04:20:33;5.45;;;2.33;;
69937;SDS011;57248;47.320;15.998;2023-07-29T04:23:06;6.32;;;2.60;;
69937;SDS011;57248;47.320;15.998;2023-07-29T04:25:38;5.80;;;2.50;;
69937;SDS011;57248;47.320;15.998;2023-07-29T04:28:10;5.33;;;2.33;;
69937;SDS011;57248;47.320;15.998;2023-07-29T04:30:42;4.90;;;2.67;;
69937;SDS011;57248;47.320;15.998;2023-07-29T04:33:08;8.20;;;2.50;;
69937;SDS011;57248;47.320;15.998;2023-07-29T04:35:40;8.70;;;2.90;;
69937;SDS011;57248;47.320;15.998;2023-07-29T04:38:13;6.07;;;2.50;;
69937;SDS011;57248;47.320;15.998;2023-07-29T04:40:45;7.50;;;2.78;;
69937;SDS011;57248;47.320;15.998;2023-07-29T04:43:17;5.85;;;2.67;;
69937;SDS011;57248;47.320;15.998;2023-07-29T04:45:49;7.18;;;3.00;;
69937;SDS011;57248;47.320;15.998;2023-07-29T04:48:22;7.18;;;2.90;;
69937;SDS011;57248;47.320;15.998;2023-07-29T04:50:55;7.80;;;2.83;;
69937;SDS011;57248;47.320;15.998;2023-07-29T04:53:27;8.25;;;2.80;;
69937;SDS011;57248;47.320;15.998;2023-07-29T04:55:53;7.27;;;2.40;;
69937;SDS011;57248;47.320;15.998;2023-07-29T04:58:24;5.50;;;2.20;;
69937;SDS011;57248;47.320;15.998;2023-07-29T05:00:57;5.97;;;2.03;;
69937;SDS011;57248;47.320;15.998;2023-07-29T05:03:29;5.15;;;2.30;;
69937;SDS011;57248;47.320;15.998;2023-07-29T05:06:05;4.82;;;2.47;;
69937;SDS011;57248;47.320;15.998;2023-07-29T05:08:37;6.27;;;2.70;;
69937;SDS011;57248;47.320;15.998;2023-07-29T05:11:09;5.95;;;2.78;;
69937;SDS011;57248;47.320;15.998;2023-07-29T05:13:41;5.53;;;2.30;;
69937;SDS011;57248;47.320;15.998;2023-07-29T05:16:15;5.10;;;2.60;;
69937;SDS011;57248;47.320;15.998;2023-07-29T05:18:47;6.75;;;2.40;;
69937;SDS011;57248;47.320;15.998;2023-07-29T05:21:19;5.67;;;2.33;;
69937;SDS011;57248;47.320;15.998;2023-07-29T05:23:51;5.70;;;2.70;;
69937;SDS011;57248;47.320;15.998;2023-07-29T05:26:23;6.00;;;2.53;;
69937;SDS011;57248;47.320;15.998;2023-07-29T05:28:57;8.27;;;2.55;;
69937;SDS011;57248;47.320;15.998;2023-07-29T05:31:30;6.03;;;2.25;;
69937;SDS011;57248;47.320;15.998;2023-07-29T05:34:01;8.23;;;2.57;;
69937;SDS011;57248;47.320;15.998;2023-07-29T05:36:33;5.20;;;2.20;;
69937;SDS011;57248;47.320;15.998;2023-07-29T05:39:05;6.35;;;2.70;;
69937;SDS011;57248;47.320;15.998;2023-07-29T05:41:38;7.50;;;2.50;;
69937;SDS011;57248;47.320;15.998;2023-07-29T05:44:05;5.77;;;2.47;;
69937;SDS011;57248;47.320;15.998;2023-07-29T05:46:37;5.82;;;2.83;;
69937;SDS011;57248;47.320;15.998;2023-07-29T05:49:09;5.65;;;2.38;;
69937;SDS011;57248;47.320;15.998;2023-07-29T05:51:41;7.07;;;2.70;;
69937;SDS011;57248;47.320;15.998;2023-07-29T05:54:13;9.67;;;2.70;;
69937;SDS011;57248;47.320;15.998;2023-07-29T05:56:45;6.30;;;2.28;;
69937;SDS011;57248;47.320;15.998;2023-07-29T05:59:17;6.13;;;2.15;;
69937;SDS011;57248;47.320;15.998;2023-07-29T06:01:52;6.85;;;2.20;;
69937;SDS011;57248;47.320;15.998;2023-07-29T06:04:24;6.25;;;2.30;;
69937;SDS011;57248;47.320;15.998;2023-07-29T06:06:56;5.80;;;2.00;;
69937;SDS011;57248;47.320;15.998;2023-07-29T06:09:28;6.55;;;2.45;;
69937;SDS011;57248;47.320;15.998;2023-07-29T06:12:00;6.18;;;2.30;;
69937;SDS011;57248;47.320;15.998;2023-07-29T06:14:32;6.68;;;2.10;;
69937;SDS011;57248;47.320;15.998;2023-07-29T06:17:04;7.80;;;2.00;;
69937;SDS011;57248;47.320;15.998;2023-07-29T06:19:32;6.43;;;2.60;;
69937;SDS011;57248;47.320;15.998;2023-07-29T06:22:03;6.03;;;2.45;;
69937;SDS011;57248;47.320;15.998;2023-07-29T06:24:37;6.15;;;2.40;;
69937;SDS011;57248;47.320;15.998;2023-07-29T06:27:10;6.90;;;2.30;;
69937;SDS011;57248;47.320;15.998;2023-07-29T06:29:41;30.08;;;8.52;;
69937;SDS011;57248;47.320;15.998;2023-07-29T06:32:13;10.13;;;2.87;;
69937;SDS011;57248;47.320;15.998;2023-07-29T06:34:45;8.85;;;2.45;;
69937;SDS011;57248;47.320;15.998;2023-07-29T06:37:17;9.32;;;3.03;;
69937;SDS011;57248;47.320;15.998;2023-07-29T06:39:50;6.90;;;3.25;;
69937;SDS011;57248;47.320;15.998;2023-07-29T06:42:22;9.45;;;4.28;;
69937;SDS011;57248;47.320;15.998;2023-07-29T06:44:55;7.30;;;3.97;;
69937;SDS011;57248;47.320;15.998;2023-07-29T06:47:27;10.32;;;4.38;;
69937;SDS011;57248;47.320;15.998;2023-07-29T06:49:59;8.50;;;2.97;;
69937;SDS011;57248;47.320;15.998;2023-07-29T06:52:38;10.13;;;2.90;;
69937;SDS011;57248;47.320;15.998;2023-07-29T06:55:11;10.75;;;2.92;;
69937;SDS011;57248;47.320;15.998;2023-07-29T06:57:43;5.60;;;2.80;;
69937;SDS011;57248;47.320;15.998;2023-07-29T07:00:17;7.35;;;2.90;;
69937;SDS011;57248;47.320;15.998;2023-07-29T07:02:48;6.55;;;2.67;;
69937;SDS011;57248;47.320;15.998;2023-07-29T07:05:20;7.75;;;2.80;;
69937;SDS011;57248;47.320;15.998;2023-07-29T07:07:52;6.72;;;2.72;;
69937;SDS011;57248;47.320;15.998;2023-07-29T07:10:24;6.23;;;2.47;;
69937;SDS011;57248;47.320;15.998;2023-07-29T07:12:57;5.30;;;2.40;;
69937;SDS011;57248;47.320;15.998;2023-07-29T07:15:29;5.78;;;2.53;;
69937;SDS011;57248;47.320;15.998;2023-07-29T07:18:01;5.93;;;2.78;;
69937;SDS011;57248;47.320;15.998;2023-07-29T07:20:34;11.43;;;2.75;;
69937;SDS011;57248;47.320;15.998;2023-07-29T07:23:06;7.23;;;2.70;;
69937;SDS011;57248;47.320;15.998;2023-07-29T07:25:42;5.55;;;2.80;;
69937;SDS011;57248;47.320;15.998;2023-07-29T07:28:14;4.88;;;2.67;;
69937;SDS011;57248;47.320;15.998;2023-07-29T07:30:46;6.28;;;2.92;;
69937;SDS011;57248;47.320;15.998;2023-07-29T07:33:12;6.53;;;3.03;;
69937;SDS011;57248;47.320;15.998;2023-07-29T07:35:43;7.63;;;3.13;;
69937;SDS011;57248;47.320;15.998;2023-07-29T07:38:15;6.15;;;3.15;;
69937;SDS011;57248;47.320;15.998;2023-07-29T07:40:43;9.13;;;4.40;;
69937;SDS011;57248;47.320;15.998;2023-07-29T07:43:24;7.40;;;5.10;;
69937;SDS011;57248;47.320;15.998;2023-07-29T07:46:00;8.07;;;5.60;;
69937;SDS011;57248;47.320;15.998;2023-07-29T07:48:26;6.97;;;6.00;;
69937;SDS011;57248;47.320;15.998;2023-07-29T07:51:12;9.30;;;6.60;;
69937;SDS011;57248;47.320;15.998;2023-07-29T07:53:44;8.30;;;7.50;;
69937;SDS011;57248;47.320;15.998;2023-07-29T07:56:16;9.07;;;8.27;;
69937;SDS011;57248;47.320;15.998;2023-07-29T07:58:48;12.25;;;11.15;;
69937;SDS011;57248;47.320;15.998;2023-07-29T08:01:21;13.02;;;11.32;;
69937;SDS011;57248;47.320;15.998;2023-07-29T08:03:53;10.40;;;9.27;;
69937;SDS011;57248;47.320;15.998;2023-07-29T08:06:27;9.88;;;8.93;;
69937;SDS011;57248;47.320;15.998;2023-07-29T08:08:58;9.33;;;8.63;;
69937;SDS011;57248;47.320;15.998;2023-07-29T08:11:31;9.45;;;8.25;;
69937;SDS011;57248;47.320;15.998;2023-07-29T08:14:03;9.63;;;8.48;;
69937;SDS011;57248;47.320;15.998;2023-07-29T08:16:37;10.30;;;9.43;;
69937;SDS011;57248;47.320;15.998;2023-07-29T08:19:02;14.20;;;12.73;;
69937;SDS011;57248;47.320;15.998;2023-07-29T08:21:34;9.30;;;8.50;;
69937;SDS011;57248;47.320;15.998;2023-07-29T08:24:07;10.40;;;9.48;;
69937;SDS011;57248;47.320;15.998;2023-07-29T08:26:39;10.65;;;9.85;;
69937;SDS011;57248;47.320;15.998;2023-07-29T08:29:12;11.15;;;9.95;;
69937;SDS011;57248;47.320;15.998;2023-07-29T08:31:38;10.13;;;8.97;;
69937;SDS011;57248;47.320;15.998;2023-07-29T08:34:10;8.93;;;8.13;;
69937;SDS011;57248;47.320;15.998;2023-07-29T08:36:42;8.98;;;8.18;;
69937;SDS011;57248;47.320;15.998;2023-07-29T08:39:14;9.63;;;8.73;;
69937;SDS011;57248;47.320;15.998;2023-07-29T08:44:23;8.97;;;8.17;;
69937;SDS011;57248;47.320;15.998;2023-07-29T08:46:57;7.88;;;7.07;;
69937;SDS011;57248;47.320;15.998;2023-07-29T08:49:30;8.82;;;7.93;;
69937;SDS011;57248;47.320;15.998;2023-07-29T08:52:17;8.70;;;7.90;;
69937;SDS011;57248;47.320;15.998;2023-07-29T08:54:49;9.32;;;8.43;;
69937;SDS011;57248;47.320;15.998;2023-07-29T08:57:15;9.83;;;8.93;;
69937;SDS011;57248;47.320;15.998;2023-07-29T08:59:48;9.02;;;8.30;;
69937;SDS011;57248;47.320;15.998;2023-07-29T09:02:14;7.97;;;7.37;;
69937;SDS011;57248;47.320;15.998;2023-07-29T09:04:48;9.70;;;8.40;;
69937;SDS011;57248;47.320;15.998;2023-07-29T09:07:19;8.18;;;7.40;;
69937;SDS011;57248;47.320;15.998;2023-07-29T09:09:52;5.70;;;5.10;;
69937;SDS011;57248;47.320;15.998;2023-07-29T09:12:24;8.50;;;6.47;;
69937;SDS011;57248;47.320;15.998;2023-07-29T09:14:58;6.80;;;5.97;;
69937;SDS011;57248;47.320;15.998;2023-07-29T09:17:33;8.13;;;7.15;;
69937;SDS011;57248;47.320;15.998;2023-07-29T09:20:05;10.52;;;9.52;;
69937;SDS011;57248;47.320;15.998;2023-07-29T09:22:41;9.50;;;8.60;;
69937;SDS011;57248;47.320;15.998;2023-07-29T09:25:15;7.60;;;6.90;;
69937;SDS011;57248;47.320;15.998;2023-07-29T09:27:48;6.20;;;4.90;;
69937;SDS011;57248;47.320;15.998;2023-07-29T09:30:20;6.55;;;5.50;;
69937;SDS011;57248;47.320;15.998;2023-07-29T09:32:59;7.70;;;5.95;;
69937;SDS011;57248;47.320;15.998;2023-07-29T09:35:32;7.15;;;6.45;;
69937;SDS011;57248;47.320;15.998;2023-07-29T09:38:06;7.35;;;6.68;;
69937;SDS011;57248;47.320;15.998;2023-07-29T09:40:39;7.87;;;6.40;;
69937;SDS011;57248;47.320;15.998;2023-07-29T09:43:12;7.55;;;6.80;;
69937;SDS011;57248;47.320;15.998;2023-07-29T09:45:49;7.97;;;7.28;;
69937;SDS011;57248;47.320;15.998;2023-07-29T09:48:23;8.45;;;7.72;;
69937;SDS011;57248;47.320;15.998;2023-07-29T09:50:55;8.77;;;7.97;;
69937;SDS011;57248;47.320;15.998;2023-07-29T09:53:38;9.67;;;8.77;;
69937;SDS011;57248;47.320;15.998;2023-07-29T09:56:23;6.88;;;6.28;;
69937;SDS011;57248;47.320;15.998;2023-07-29T09:58:57;7.55;;;6.95;;
69937;SDS011;57248;47.320;15.998;2023-07-29T10:01:30;25.25;;;23.40;;
69937;SDS011;57248;47.320;15.998;2023-07-29T10:04:03;9.18;;;8.40;;
69937;SDS011;57248;47.320;15.998;2023-07-29T10:06:28;38.90;;;35.90;;
69937;SDS011;57248;47.320;15.998;2023-07-29T10:09:01;14.13;;;13.02;;
69937;SDS011;57248;47.320;15.998;2023-07-29T10:11:33;9.07;;;8.30;;
69937;SDS011;57248;47.320;15.998;2023-07-29T10:14:06;8.40;;;7.70;;
69937;SDS011;57248;47.320;15.998;2023-07-29T10:16:40;8.30;;;7.70;;
69937;SDS011;57248;47.320;15.998;2023-07-29T10:19:13;8.17;;;7.47;;
69937;SDS011;57248;47.320;15.998;2023-07-29T10:21:48;8.90;;;8.15;;
69937;SDS011;57248;47.320;15.998;2023-07-29T10:24:24;8.90;;;8.20;;
69937;SDS011;57248;47.320;15.998;2023-07-29T10:27:01;8.20;;;7.60;;
69937;SDS011;57248;47.320;15.998;2023-07-29T10:29:36;8.75;;;8.10;;
69937;SDS011;57248;47.320;15.998;2023-07-29T10:32:11;9.07;;;8.37;;
69937;SDS011;57248;47.320;15.998;2023-07-29T10:34:43;8.85;;;8.23;;
69937;SDS011;57248;47.320;15.998;2023-07-29T10:37:09;10.18;;;9.38;;
69937;SDS011;57248;47.320;15.998;2023-07-29T10:39:45;12.90;;;12.00;;
69937;SDS011;57248;47.320;15.998;2023-07-29T10:42:24;9.52;;;8.85;;
69937;SDS011;57248;47.320;15.998;2023-07-29T10:44:56;9.90;;;9.15;;
69937;SDS011;57248;47.320;15.998;2023-07-29T10:47:28;10.30;;;9.60;;
69937;SDS011;57248;47.320;15.998;2023-07-29T10:49:55;9.80;;;9.00;;
69937;SDS011;57248;47.320;15.998;2023-07-29T10:53:10;10.15;;;9.30;;
69937;SDS011;57248;47.320;15.998;2023-07-29T10:55:26;9.38;;;8.70;;
69937;SDS011;57248;47.320;15.998;2023-07-29T11:00:30;9.57;;;8.87;;
69937;SDS011;57248;47.320;15.998;2023-07-29T11:03:03;10.85;;;10.05;;
69937;SDS011;57248;47.320;15.998;2023-07-29T11:05:47;10.02;;;9.10;;
69937;SDS011;57248;47.320;15.998;2023-07-29T11:11:05;9.45;;;8.75;;
69937;SDS011;57248;47.320;15.998;2023-07-29T11:13:40;8.38;;;7.78;;
69937;SDS011;57248;47.320;15.998;2023-07-29T11:16:13;10.30;;;9.32;;
69937;SDS011;57248;47.320;15.998;2023-07-29T11:18:47;9.90;;;9.10;;
69937;SDS011;57248;47.320;15.998;2023-07-29T11:21:20;9.43;;;8.73;;
69937;SDS011;57248;47.320;15.998;2023-07-29T11:23:53;9.93;;;9.18;;
69937;SDS011;57248;47.320;15.998;2023-07-29T11:26:25;9.65;;;8.95;;
69937;SDS011;57248;47.320;15.998;2023-07-29T11:29:00;9.77;;;9.00;;
69937;SDS011;57248;47.320;15.998;2023-07-29T11:31:41;10.40;;;9.30;;
69937;SDS011;57248;47.320;15.998;2023-07-29T11:34:12;10.03;;;9.30;;
69937;SDS011;57248;47.320;15.998;2023-07-29T11:36:48;8.40;;;7.70;;
69937;SDS011;57248;47.320;15.998;2023-07-29T11:39:20;8.68;;;7.97;;
69937;SDS011;57248;47.320;15.998;2023-07-29T11:41:52;7.88;;;7.28;;
69937;SDS011;57248;47.320;15.998;2023-07-29T11:44:24;6.13;;;5.63;;
69937;SDS011;57248;47.320;15.998;2023-07-29T11:46:56;7.67;;;5.40;;
69937;SDS011;57248;47.320;15.998;2023-07-29T11:49:28;7.15;;;6.55;;
69937;SDS011;57248;47.320;15.998;2023-07-29T11:52:08;8.43;;;7.72;;
69937;SDS011;57248;47.320;15.998;2023-07-29T11:54:41;9.60;;;8.70;;
69937;SDS011;57248;47.320;15.998;2023-07-29T11:57:16;10.57;;;9.82;;
69937;SDS011;57248;47.320;15.998;2023-07-29T11:59:49;9.93;;;9.23;;
69937;SDS011;57248;47.320;15.998;2023-07-29T12:02:21;6.20;;;5.70;;
69937;SDS011;57248;47.320;15.998;2023-07-29T12:04:55;7.93;;;7.32;;
69937;SDS011;57248;47.320;15.998;2023-07-29T12:07:30;5.38;;;4.88;;
69937;SDS011;57248;47.320;15.998;2023-07-29T12:09:59;5.40;;;4.90;;
69937;SDS011;57248;47.320;15.998;2023-07-29T12:12:31;5.97;;;5.37;;
69937;SDS011;57248;47.320;15.998;2023-07-29T12:15:04;6.15;;;4.80;;
69937;SDS011;57248;47.320;15.998;2023-07-29T12:17:40;5.57;;;4.53;;
69937;SDS011;57248;47.320;15.998;2023-07-29T12:20:12;4.90;;;3.80;;
69937;SDS011;57248;47.320;15.998;2023-07-29T12:22:50;4.70;;;4.20;;
69937;SDS011;57248;47.320;15.998;2023-07-29T12:25:26;8.57;;;7.87;;
69937;SDS011;57248;47.320;15.998;2023-07-29T12:27:52;11.80;;;10.68;;
69937;SDS011;57248;47.320;15.998;2023-07-29T12:30:26;12.75;;;11.65;;
69937;SDS011;57248;47.320;15.998;2023-07-29T12:32:57;13.07;;;12.17;;
69937;SDS011;57248;47.320;15.998;2023-07-29T12:35:36;13.88;;;12.88;;
69937;SDS011;57248;47.320;15.998;2023-07-29T12:38:08;14.25;;;13.15;;
69937;SDS011;57248;47.320;15.998;2023-07-29T12:40:41;11.63;;;10.73;;
69937;SDS011;57248;47.320;15.998;2023-07-29T12:43:13;9.48;;;8.77;;
69937;SDS011;57248;47.320;15.998;2023-07-29T12:45:45;9.30;;;8.60;;
69937;SDS011;57248;47.320;15.998;2023-07-29T12:48:17;9.50;;;8.80;;
69937;SDS011;57248;47.320;15.998;2023-07-29T12:50:43;12.03;;;11.23;;
69937;SDS011;57248;47.320;15.998;2023-07-29T12:53:14;11.93;;;11.00;;
69937;SDS011;57248;47.320;15.998;2023-07-29T12:55:47;12.77;;;11.88;;
69937;SDS011;57248;47.320;15.998;2023-07-29T12:58:18;9.23;;;8.43;;
69937;SDS011;57248;47.320;15.998;2023-07-29T13:00:45;5.60;;;5.07;;
69937;SDS011;57248;47.320;15.998;2023-07-29T13:03:17;5.45;;;4.70;;
69937;SDS011;57248;47.320;15.998;2023-07-29T13:05:49;4.30;;;3.83;;
69937;SDS011;57248;47.320;15.998;2023-07-29T13:08:16;4.28;;;3.72;;
69937;SDS011;57248;47.320;15.998;2023-07-29T13:10:48;5.25;;;3.53;;
69937;SDS011;57248;47.320;15.998;2023-07-29T13:13:20;4.72;;;3.58;;
69937;SDS011;57248;47.320;15.998;2023-07-29T13:15:52;4.30;;;3.33;;
69937;SDS011;57248;47.320;15.998;2023-07-29T13:18:18;4.57;;;2.90;;
69937;SDS011;57248;47.320;15.998;2023-07-29T13:20:51;6.78;;;1.77;;
69937;SDS011;57248;47.320;15.998;2023-07-29T13:23:23;7.33;;;1.10;;
69937;SDS011;57248;47.320;15.998;2023-07-29T13:25:58;4.85;;;0.93;;
69937;SDS011;57248;47.320;15.998;2023-07-29T13:28:31;6.88;;;0.57;;
69937;SDS011;57248;47.320;15.998;2023-07-29T13:31:02;3.65;;;0.50;;
69937;SDS011;57248;47.320;15.998;2023-07-29T13:33:36;1.45;;;0.30;;
69937;SDS011;57248;47.320;15.998;2023-07-29T13:36:08;3.73;;;0.57;;
69937;SDS011;57248;47.320;15.998;2023-07-29T13:38:34;2.95;;;0.50;;
69937;SDS011;57248;47.320;15.998;2023-07-29T13:41:06;4.10;;;0.67;;
69937;SDS011;57248;47.320;15.998;2023-07-29T13:43:38;6.22;;;0.88;;
69937;SDS011;57248;47.320;15.998;2023-07-29T13:46:12;3.63;;;0.95;;
69937;SDS011;57248;47.320;15.998;2023-07-29T13:48:46;3.53;;;0.95;;
69937;SDS011;57248;47.320;15.998;2023-07-29T13:51:32;4.65;;;1.33;;
69937;SDS011;57248;47.320;15.998;2023-07-29T13:54:05;4.23;;;1.00;;
69937;SDS011;57248;47.320;15.998;2023-07-29T13:56:37;4.35;;;0.80;;
69937;SDS011;57248;47.320;15.998;2023-07-29T13:59:12;2.63;;;0.82;;
69937;SDS011;57248;47.320;15.998;2023-07-29T14:01:38;1.63;;;0.80;;
69937;SDS011;57248;47.320;15.998;2023-07-29T14:04:09;4.68;;;0.90;;
69937;SDS011;57248;47.320;15.998;2023-07-29T14:06:36;2.47;;;1.00;;
69937;SDS011;57248;47.320;15.998;2023-07-29T14:09:08;2.92;;;1.08;;
69937;SDS011;57248;47.320;15.998;2023-07-29T14:11:42;2.92;;;1.58;;
69937;SDS011;57248;47.320;15.998;2023-07-29T14:14:14;4.50;;;2.70;;
69937;SDS011;57248;47.320;15.998;2023-07-29T14:16:41;5.22;;;3.67;;
69937;SDS011;57248;47.320;15.998;2023-07-29T14:19:13;4.30;;;3.90;;
69937;SDS011;57248;47.320;15.998;2023-07-29T14:21:46;6.63;;;4.60;;
69937;SDS011;57248;47.320;15.998;2023-07-29T14:24:17;5.30;;;4.88;;
69937;SDS011;57248;47.320;15.998;2023-07-29T14:26:49;5.03;;;3.85;;
69937;SDS011;57248;47.320;15.998;2023-07-29T14:29:21;4.97;;;4.25;;
69937;SDS011;57248;47.320;15.998;2023-07-29T14:31:47;5.03;;;4.33;;
69937;SDS011;57248;47.320;15.998;2023-07-29T14:34:18;4.97;;;4.47;;
69937;SDS011;57248;47.320;15.998;2023-07-29T14:36:52;5.82;;;4.80;;
69937;SDS011;57248;47.320;15.998;2023-07-29T14:39:23;4.23;;;3.80;;
69937;SDS011;57248;47.320;15.998;2023-07-29T14:41:56;4.10;;;3.80;;
69937;SDS011;57248;47.320;15.998;2023-07-29T14:44:28;3.97;;;3.58;;
69937;SDS011;57248;47.320;15.998;2023-07-29T14:47:00;4.57;;;4.18;;
69937;SDS011;57248;47.320;15.998;2023-07-29T14:49:33;4.65;;;3.70;;
69937;SDS011;57248;47.320;15.998;2023-07-29T14:52:13;4.73;;;4.23;;
69937;SDS011;57248;47.320;15.998;2023-07-29T14:54:46;6.00;;;5.40;;
69937;SDS011;57248;47.320;15.998;2023-07-29T14:57:18;5.07;;;4.68;;
69937;SDS011;57248;47.320;15.998;2023-07-29T14:59:51;6.38;;;5.22;;
69937;SDS011;57248;47.320;15.998;2023-07-29T15:02:16;6.15;;;4.82;;
69937;SDS011;57248;47.320;15.998;2023-07-29T15:04:49;4.90;;;4.50;;
69937;SDS011;57248;47.320;15.998;2023-07-29T15:07:15;5.63;;;4.38;;
69937;SDS011;57248;47.320;15.998;2023-07-29T15:09:47;3.97;;;3.67;;
69937;SDS011;57248;47.320;15.998;2023-07-29T15:12:18;4.88;;;4.25;;
69937;SDS011;57248;47.320;15.998;2023-07-29T15:14:51;6.20;;;4.43;;
69937;SDS011;57248;47.320;15.998;2023-07-29T15:17:23;4.60;;;3.83;;